createdAt,value
2019-05-17T00:00:27.280Z,30.45
2019-05-17T00:03:32.834Z,29.72
2019-05-17T00:06:37.014Z,28.30
2019-05-17T00:09:40.700Z,30.12
2019-05-17T00:12:46.913Z,34.65
2019-05-17T00:15:49.971Z,29.37
2019-05-17T00:18:53.507Z,31.37
2019-05-17T00:21:57.251Z,30.20
2019-05-17T00:25:00.912Z,28.95
2019-05-17T00:28:07.043Z,29.48
2019-05-17T00:31:10.363Z,33.42
2019-05-17T00:34:16.593Z,27.85
2019-05-17T00:37:21.296Z,34.10
2019-05-17T00:40:26.983Z,32.23
2019-05-17T00:43:30.983Z,35.95
2019-05-17T00:46:37.096Z,38.90
2019-05-17T00:49:39.967Z,36.95
2019-05-17T00:52:43.788Z,33.13
2019-05-17T00:55:47.475Z,35.05
2019-05-17T00:58:51.181Z,33.45
2019-05-17T01:01:56.232Z,32.33
2019-05-17T01:05:00.028Z,35.90
2019-05-17T01:08:03.617Z,33.67
2019-05-17T01:11:07.390Z,34.40
2019-05-17T01:14:11.024Z,38.85
2019-05-17T01:17:16.522Z,39.60
2019-05-17T01:20:20.284Z,40.23
2019-05-17T01:23:23.961Z,39.58
2019-05-17T01:26:27.692Z,38.60
2019-05-17T01:29:31.398Z,41.85
2019-05-17T01:32:37.487Z,42.35
2019-05-17T01:35:46.636Z,43.50
2019-05-17T01:38:50.566Z,41.37
2019-05-17T01:41:54.197Z,40.48
2019-05-17T01:44:57.867Z,45.08
2019-05-17T01:48:01.599Z,40.95
2019-05-17T01:51:07.301Z,44.05
2019-05-17T01:54:10.690Z,43.87
2019-05-17T01:57:16.671Z,40.75
2019-05-17T02:00:20.280Z,39.48
2019-05-17T02:03:24.085Z,43.90
2019-05-17T02:06:27.804Z,50.67
2019-05-17T02:09:37.335Z,45.28
2019-05-17T02:12:37.293Z,48.00
2019-05-17T02:15:40.971Z,48.87
2019-05-17T02:18:46.599Z,51.68
2019-05-17T02:21:50.181Z,45.73
2019-05-17T02:24:53.782Z,46.37
2019-05-17T02:27:57.489Z,49.25
2019-05-17T02:31:03.467Z,53.65
2019-05-17T02:34:07.046Z,50.03
2019-05-17T02:37:13.562Z,49.50
2019-05-17T02:40:16.710Z,48.78
2019-05-17T02:43:23.365Z,52.35
2019-05-17T02:46:25.861Z,50.12
2019-05-17T02:49:29.413Z,48.28
2019-05-17T02:52:33.140Z,54.25
2019-05-17T02:55:37.022Z,54.10
2019-05-17T02:58:43.645Z,52.38
2019-05-17T03:01:46.276Z,52.73
2019-05-17T03:04:52.531Z,52.83
2019-05-17T03:07:55.356Z,54.98
2019-05-17T03:10:58.944Z,54.63
2019-05-17T03:14:03.968Z,54.35
2019-05-17T03:17:08.205Z,54.77
2019-05-17T03:20:13.251Z,55.35
2019-05-17T03:23:17.055Z,55.10
2019-05-17T03:26:23.104Z,58.10
2019-05-17T03:29:26.341Z,51.70
2019-05-17T03:32:36.132Z,56.98
2019-05-17T03:35:38.372Z,53.73
2019-05-17T03:38:43.142Z,56.48
2019-05-17T03:41:47.208Z,57.55
2019-05-17T03:44:53.089Z,56.92
2019-05-17T03:47:56.391Z,50.85
2019-05-17T03:51:02.567Z,50.33
2019-05-17T03:54:05.521Z,52.62
2019-05-17T03:57:09.339Z,48.75
2019-05-17T04:00:13.894Z,47.60
2019-05-17T04:03:17.706Z,48.92
2019-05-17T04:06:23.788Z,49.75
2019-05-17T04:09:26.914Z,51.65
2019-05-17T04:12:32.770Z,52.55
2019-05-17T04:15:35.993Z,50.08
2019-05-17T04:18:43.374Z,45.70
2019-05-17T04:21:45.168Z,48.68
2019-05-17T04:24:48.845Z,47.75
2019-05-17T04:27:53.642Z,50.30
2019-05-17T04:30:57.396Z,52.23
2019-05-17T04:34:03.094Z,50.78
2019-05-17T04:37:06.435Z,54.40
2019-05-17T04:40:13.633Z,52.73
2019-05-17T04:43:15.594Z,52.60
2019-05-17T04:46:19.295Z,51.28
2019-05-17T04:49:24.334Z,47.88
2019-05-17T04:52:28.260Z,55.75
2019-05-17T04:55:34.194Z,50.03
2019-05-17T04:58:37.306Z,48.95
2019-05-17T05:01:43.518Z,48.58
2019-05-17T05:04:46.988Z,49.83
2019-05-17T05:07:53.455Z,48.13
2019-05-17T05:10:56.268Z,45.50
2019-05-17T05:14:02.658Z,48.48
2019-05-17T05:17:05.301Z,48.17
2019-05-17T05:20:09.163Z,49.75
2019-05-17T05:23:13.402Z,45.23
2019-05-17T05:26:17.227Z,47.90
2019-05-17T05:29:21.651Z,48.98
2019-05-17T05:32:25.529Z,46.83
2019-05-17T05:35:29.130Z,43.87
2019-05-17T05:38:32.813Z,47.33
2019-05-17T05:41:36.546Z,45.00
2019-05-17T05:44:41.574Z,48.17
2019-05-17T05:47:45.230Z,45.50
2019-05-17T05:50:49.001Z,49.67
2019-05-17T05:53:52.655Z,50.08
2019-05-17T05:56:56.392Z,47.65
2019-05-17T06:00:02.278Z,45.98
2019-05-17T06:03:05.528Z,45.50
2019-05-17T06:06:09.065Z,47.73
2019-05-17T06:09:12.839Z,44.50
2019-05-17T06:12:23.688Z,45.67
2019-05-17T06:15:22.091Z,45.50
2019-05-17T06:18:25.735Z,44.33
2019-05-17T06:21:31.788Z,46.80
2019-05-17T06:24:34.915Z,47.13
2019-05-17T06:27:38.540Z,46.55
2019-05-17T06:30:43.027Z,44.95
2019-05-17T06:33:46.918Z,45.65
2019-05-17T06:36:52.712Z,42.25
2019-05-17T06:39:55.884Z,45.75
2019-05-17T06:42:59.432Z,44.83
2019-05-17T06:46:03.197Z,44.13
2019-05-17T06:49:06.950Z,44.65
2019-05-17T06:52:11.646Z,39.92
2019-05-17T06:55:15.456Z,42.88
2019-05-17T06:58:18.995Z,45.20
2019-05-17T07:01:22.642Z,42.15
2019-05-17T07:04:26.364Z,44.65
2019-05-17T07:07:30.655Z,45.00
2019-05-17T07:10:34.518Z,36.98
2019-05-17T07:13:39.537Z,41.65
2019-05-17T07:16:43.320Z,44.35
2019-05-17T07:19:46.939Z,37.85
2019-05-17T07:22:50.813Z,38.78
2019-05-17T07:25:54.396Z,35.65
2019-05-17T07:28:59.268Z,36.40
2019-05-17T07:32:03.000Z,36.35
2019-05-17T07:35:06.903Z,35.78
2019-05-17T07:38:10.987Z,36.70
2019-05-17T07:41:14.663Z,36.35
2019-05-17T07:44:20.399Z,35.75
2019-05-17T07:47:23.494Z,35.63
2019-05-17T07:50:29.200Z,35.83
2019-05-17T07:53:32.469Z,40.23
2019-05-17T07:56:36.054Z,36.50
2019-05-17T07:59:39.857Z,35.48
2019-05-17T08:02:43.602Z,33.28
2019-05-17T08:05:47.127Z,33.18
2019-05-17T08:08:50.709Z,32.58
2019-05-17T08:11:54.294Z,35.38
2019-05-17T08:14:59.861Z,35.60
2019-05-17T08:18:03.075Z,34.60
2019-05-17T08:21:06.639Z,31.50
2019-05-17T08:24:10.423Z,35.25
2019-05-17T08:27:14.230Z,37.67
2019-05-17T08:30:20.662Z,32.10
2019-05-17T08:33:24.101Z,30.50
2019-05-17T08:36:29.846Z,36.58
2019-05-17T08:39:32.938Z,34.13
2019-05-17T08:42:36.480Z,30.68
2019-05-17T08:45:40.889Z,29.35
2019-05-17T08:48:44.673Z,28.17
2019-05-17T08:51:50.026Z,30.27
2019-05-17T08:54:53.562Z,27.30
2019-05-17T08:57:57.205Z,23.30
2019-05-17T09:01:00.810Z,19.23
2019-05-17T09:04:04.514Z,18.37
2019-05-17T09:07:09.475Z,20.30
2019-05-17T09:10:13.368Z,19.52
2019-05-17T09:13:19.375Z,20.85
2019-05-17T09:16:22.382Z,23.00
2019-05-17T09:19:25.993Z,19.40
2019-05-17T09:22:30.534Z,21.62
2019-05-17T09:25:34.355Z,22.02
2019-05-17T09:28:39.386Z,20.08
2019-05-17T09:31:43.167Z,18.70
2019-05-17T09:34:46.783Z,21.87
2019-05-17T09:37:50.429Z,20.48
2019-05-17T09:40:54.067Z,12.30
2019-05-17T09:44:09.619Z,11.60
2019-05-17T09:47:03.079Z,11.15
2019-05-17T09:50:09.684Z,11.38
2019-05-17T09:53:12.951Z,9.35
2019-05-17T09:56:16.548Z,8.10
2019-05-17T09:59:20.480Z,8.15
2019-05-17T10:02:24.175Z,9.43
2019-05-17T10:05:27.823Z,10.68
2019-05-17T10:08:31.510Z,12.35
2019-05-17T10:11:35.372Z,14.58
2019-05-17T10:14:43.716Z,9.33
2019-05-17T10:17:49.379Z,12.28
2019-05-17T10:20:56.586Z,12.07
2019-05-17T10:24:00.468Z,13.38
2019-05-17T10:27:04.330Z,13.48
2019-05-17T10:30:10.512Z,10.80
2019-05-17T10:33:14.678Z,10.80
2019-05-17T10:36:20.185Z,12.53
2019-05-17T10:39:24.079Z,13.93
2019-05-17T10:42:30.520Z,13.80
2019-05-17T10:45:33.619Z,12.20
2019-05-17T10:48:37.299Z,14.87
2019-05-17T10:51:41.012Z,12.53
2019-05-17T10:54:44.796Z,12.35
2019-05-17T10:57:50.003Z,11.70
2019-05-17T11:00:54.185Z,13.35
2019-05-17T11:03:59.583Z,12.15
2019-05-17T11:07:04.354Z,10.58
2019-05-17T11:10:11.796Z,9.68
2019-05-17T11:13:14.223Z,10.15
2019-05-17T11:16:17.984Z,12.15
2019-05-17T11:19:21.736Z,9.43
2019-05-17T11:22:25.370Z,9.30
2019-05-17T11:25:29.581Z,8.90
2019-05-17T11:28:33.263Z,10.48
2019-05-17T11:31:37.003Z,11.40
2019-05-17T11:34:40.648Z,10.38
2019-05-17T11:37:44.545Z,9.88
2019-05-17T11:40:49.993Z,9.45
2019-05-17T11:43:53.974Z,12.75
2019-05-17T11:46:57.934Z,13.05
2019-05-17T11:50:01.676Z,10.03
2019-05-17T11:53:05.368Z,10.68
2019-05-17T11:56:09.212Z,10.13
2019-05-17T11:59:12.872Z,8.85
2019-05-17T12:02:16.665Z,12.53
2019-05-17T12:05:20.334Z,11.33
2019-05-17T12:08:24.022Z,10.75
2019-05-17T12:11:27.899Z,10.18
2019-05-17T12:14:31.632Z,9.28
2019-05-17T12:17:35.372Z,13.00
2019-05-17T12:20:39.085Z,10.63
2019-05-17T12:23:42.808Z,15.08
2019-05-17T12:26:47.566Z,13.53
2019-05-17T12:29:51.297Z,12.55
2019-05-17T12:32:55.158Z,16.00
2019-05-17T12:35:59.005Z,14.98
2019-05-17T12:39:03.205Z,14.25
2019-05-17T12:42:07.207Z,11.30
2019-05-17T12:45:11.210Z,11.93
2019-05-17T12:48:14.919Z,10.03
2019-05-17T12:51:18.786Z,12.95
2019-05-17T12:54:22.450Z,9.38
2019-05-17T12:57:26.327Z,13.43
2019-05-17T13:00:29.972Z,11.80
2019-05-17T13:03:33.727Z,12.28
2019-05-17T13:06:37.346Z,10.43
2019-05-17T13:09:40.992Z,9.68
2019-05-17T13:12:44.642Z,10.72
2019-05-17T13:15:48.301Z,13.62
2019-05-17T13:18:51.948Z,15.35
2019-05-17T13:21:55.566Z,10.23
2019-05-17T13:24:59.190Z,10.15
2019-05-17T13:28:02.875Z,9.35
2019-05-17T13:31:06.479Z,11.73
2019-05-17T13:34:10.125Z,10.48
2019-05-17T13:37:13.833Z,11.00
2019-05-17T13:40:18.112Z,14.75
2019-05-17T13:43:21.798Z,11.30
2019-05-17T13:46:33.007Z,10.05
2019-05-17T13:49:30.860Z,11.63
2019-05-17T13:52:34.470Z,10.90
2019-05-17T13:55:38.120Z,11.73
2019-05-17T13:58:41.726Z,11.40
2019-05-17T14:01:46.284Z,13.95
2019-05-17T14:04:49.954Z,16.00
2019-05-17T14:07:53.541Z,13.05
2019-05-17T14:10:57.247Z,12.85
2019-05-17T14:14:00.931Z,16.35
2019-05-17T14:17:04.641Z,13.88
2019-05-17T14:20:08.634Z,13.08
2019-05-17T14:23:12.359Z,14.30
2019-05-17T14:26:16.005Z,14.93
2019-05-17T14:29:19.669Z,12.85
2019-05-17T14:32:23.339Z,11.43
2019-05-17T14:35:28.691Z,13.45
2019-05-17T14:38:32.365Z,12.15
2019-05-17T14:41:35.976Z,12.35
2019-05-17T14:44:39.643Z,13.00
2019-05-17T14:47:43.326Z,13.93
2019-05-17T14:50:46.956Z,11.03
2019-05-17T14:53:50.919Z,12.28
2019-05-17T14:56:54.709Z,12.95
2019-05-17T14:59:58.356Z,17.90
2019-05-17T15:03:02.123Z,10.70
2019-05-17T15:06:05.791Z,11.78
2019-05-17T15:09:11.660Z,10.98
2019-05-17T15:12:27.175Z,10.58
2019-05-17T15:15:25.615Z,10.68
2019-05-17T15:18:25.778Z,12.95
2019-05-17T15:21:29.454Z,10.70
2019-05-17T15:24:33.078Z,12.58
2019-05-17T15:27:36.739Z,12.75
2019-05-17T15:30:40.427Z,11.43
2019-05-17T15:33:44.077Z,12.65
2019-05-17T15:36:47.705Z,11.10
2019-05-17T15:39:51.385Z,11.57
2019-05-17T15:42:54.996Z,13.05
2019-05-17T15:45:58.733Z,10.82
2019-05-17T15:49:02.362Z,12.05
2019-05-17T15:52:06.146Z,13.32
2019-05-17T15:55:09.841Z,15.00
2019-05-17T15:58:13.500Z,12.73
2019-05-17T16:01:17.174Z,11.15
2019-05-17T16:04:20.817Z,14.68
2019-05-17T16:07:24.502Z,13.43
2019-05-17T16:10:28.167Z,12.88
2019-05-17T16:13:33.853Z,10.85
2019-05-17T16:16:37.327Z,14.23
2019-05-17T16:19:40.929Z,11.30
2019-05-17T16:22:44.562Z,13.70
2019-05-17T16:25:48.201Z,11.93
2019-05-17T16:28:51.818Z,15.10
2019-05-17T16:31:55.525Z,13.00
2019-05-17T16:34:59.192Z,12.53
2019-05-17T16:38:02.830Z,12.70
2019-05-17T16:41:06.550Z,13.70
2019-05-17T16:44:10.209Z,12.40
2019-05-17T16:47:13.828Z,13.25
2019-05-17T16:50:17.845Z,11.60
2019-05-17T16:53:21.576Z,13.45
2019-05-17T16:56:25.354Z,12.68
2019-05-17T16:59:29.044Z,16.73
2019-05-17T17:02:32.710Z,13.90
2019-05-17T17:05:36.655Z,13.55
2019-05-17T17:08:41.804Z,18.32
2019-05-17T17:11:45.859Z,16.48
2019-05-17T17:14:49.445Z,18.73
2019-05-17T17:17:53.161Z,17.55
2019-05-17T17:20:56.801Z,16.17
2019-05-17T17:24:00.511Z,14.87
2019-05-17T17:27:04.395Z,13.78
2019-05-17T17:30:10.211Z,14.65
2019-05-17T17:33:13.999Z,15.75
2019-05-17T17:36:19.524Z,15.83
2019-05-17T17:39:23.051Z,14.73
2019-05-17T17:42:26.704Z,16.60
2019-05-17T17:45:30.521Z,25.77
2019-05-17T17:48:34.184Z,17.92
2019-05-17T17:51:37.821Z,13.08
2019-05-17T17:54:41.452Z,13.95
2019-05-17T17:57:45.237Z,12.78
2019-05-17T18:00:48.971Z,11.68
2019-05-17T18:03:52.632Z,17.25
2019-05-17T18:06:56.279Z,13.85
2019-05-17T18:09:59.961Z,12.45
2019-05-17T18:13:03.602Z,11.08
2019-05-17T18:16:07.250Z,15.55
2019-05-17T18:19:10.930Z,15.32
2019-05-17T18:22:14.635Z,11.90
2019-05-17T18:25:18.671Z,11.45
2019-05-17T18:28:22.406Z,13.00
2019-05-17T18:31:26.035Z,12.65
2019-05-17T18:34:29.746Z,17.32
2019-05-17T18:37:39.391Z,17.12
2019-05-17T18:40:49.859Z,15.88
2019-05-17T18:44:27.037Z,20.72
2019-05-17T18:47:24.081Z,14.40
2019-05-17T18:50:28.273Z,17.25
2019-05-17T18:53:32.011Z,12.88
2019-05-17T18:56:35.664Z,14.18
2019-05-17T18:59:39.308Z,14.07
2019-05-17T19:02:42.932Z,14.33
2019-05-17T19:05:46.485Z,13.93
2019-05-17T19:08:50.041Z,15.15
2019-05-17T19:11:53.603Z,17.10
2019-05-17T19:15:00.499Z,16.12
2019-05-17T19:18:02.600Z,14.55
2019-05-17T19:21:13.475Z,17.40
2019-05-17T19:24:17.042Z,20.10
2019-05-17T19:27:20.637Z,17.12
2019-05-17T19:30:24.335Z,21.82
2019-05-17T19:33:28.074Z,18.45
2019-05-17T19:36:31.694Z,22.67
2019-05-17T19:39:35.258Z,38.00
2019-05-17T19:42:38.811Z,23.62
2019-05-17T19:45:43.203Z,26.15
2019-05-17T19:48:47.387Z,20.70
2019-05-17T19:51:51.041Z,18.67
2019-05-17T19:54:54.616Z,26.45
2019-05-17T19:57:58.595Z,23.25
2019-05-17T20:01:03.995Z,23.30
2019-05-17T20:04:08.078Z,29.85
2019-05-17T20:07:12.530Z,25.95
2019-05-17T20:10:17.077Z,22.58
2019-05-17T20:13:20.627Z,22.62
2019-05-17T20:16:24.203Z,24.45
2019-05-17T20:19:27.838Z,25.32
2019-05-17T20:22:33.014Z,27.20
2019-05-17T20:25:36.611Z,24.32
2019-05-17T20:28:43.160Z,25.12
2019-05-17T20:31:46.817Z,23.22
2019-05-17T20:34:50.432Z,24.20
2019-05-17T20:37:53.954Z,22.65
2019-05-17T20:40:57.534Z,25.37
2019-05-17T20:44:04.662Z,28.90
2019-05-17T20:47:08.249Z,25.77
2019-05-17T20:50:13.714Z,24.00
2019-05-17T20:53:19.507Z,25.65
2019-05-17T20:56:32.317Z,25.80
2019-05-17T20:59:28.585Z,26.85
2019-05-17T21:02:36.415Z,28.07
2019-05-17T21:05:37.460Z,28.60
2019-05-17T21:08:45.871Z,36.55
2019-05-17T21:11:46.330Z,25.65
2019-05-17T21:14:49.981Z,26.05
2019-05-17T21:17:53.516Z,24.95
2019-05-17T21:24:14.067Z,31.07
2019-05-17T21:27:19.210Z,34.03
2019-05-17T21:30:22.901Z,32.78
2019-05-17T21:33:26.579Z,38.17
2019-05-17T21:36:30.224Z,33.88
2019-05-17T21:39:33.827Z,33.20
2019-05-17T21:42:38.874Z,32.00
2019-05-17T21:45:42.481Z,34.75
2019-05-17T21:48:47.497Z,35.08
2019-05-17T21:51:51.048Z,32.00
2019-05-17T21:54:54.647Z,39.48
2019-05-17T21:57:59.873Z,32.60
2019-05-17T22:01:06.736Z,33.67
2019-05-17T22:04:10.312Z,34.80
2019-05-17T22:07:13.938Z,37.98
2019-05-17T22:10:23.656Z,34.43
2019-05-17T22:13:28.389Z,35.10
2019-05-17T22:16:34.075Z,35.08
2019-05-17T22:19:38.768Z,37.25
2019-05-17T22:22:43.941Z,34.43
2019-05-17T22:25:47.533Z,34.78
2019-05-17T22:28:51.204Z,33.83
2019-05-17T22:31:54.832Z,34.75
2019-05-17T22:34:58.595Z,36.50
2019-05-17T22:38:02.281Z,35.88
2019-05-17T22:41:06.246Z,38.08
2019-05-17T22:44:15.291Z,34.83
2019-05-17T22:47:18.905Z,37.42
2019-05-17T22:50:22.538Z,38.00
2019-05-17T22:53:28.562Z,31.23
2019-05-17T22:56:32.136Z,34.10
2019-05-17T22:59:37.621Z,29.30
2019-05-17T23:02:43.312Z,31.33
2019-05-17T23:05:46.570Z,32.53
2019-05-17T23:08:52.538Z,34.88
2019-05-17T23:11:55.425Z,33.02
2019-05-17T23:14:58.991Z,32.42
2019-05-17T23:18:02.565Z,28.70
2019-05-17T23:21:06.275Z,29.52
2019-05-17T23:24:09.869Z,29.10
2019-05-17T23:27:13.537Z,28.77
2019-05-17T23:30:17.192Z,30.20
2019-05-17T23:33:20.742Z,28.67
2019-05-17T23:36:24.339Z,28.52
2019-05-17T23:39:27.890Z,29.20
2019-05-17T23:42:31.516Z,26.07
2019-05-17T23:45:35.080Z,26.75
2019-05-17T23:48:38.621Z,25.68
2019-05-17T23:51:42.233Z,26.07
2019-05-17T23:54:45.922Z,26.90
2019-05-17T23:57:49.456Z,28.80
